sensor_id;sensor_type;location;lat;lon;timestamp;temperature;humidity
8684;DHT22;4379;59.744;18.206;2022-11-14T00:01:12;2.60;99.90
8684;DHT22;4379;59.744;18.206;2022-11-14T00:03:39;2.70;99.90
8684;DHT22;4379;59.744;18.206;2022-11-14T00:06:07;2.60;99.90
8684;DHT22;4379;59.744;18.206;2022-11-14T00:08:35;2.70;99.90
8684;DHT22;4379;59.744;18.206;2022-11-14T00:11:02;2.80;99.90
8684;DHT22;4379;59.744;18.206;2022-11-14T00:13:29;2.90;99.90
8684;DHT22;4379;59.744;18.206;2022-11-14T00:15:57;2.90;99.90
8684;DHT22;4379;59.744;18.206;2022-11-14T00:18:24;2.90;99.90
8684;DHT22;4379;59.744;18.206;2022-11-14T00:20:52;2.90;99.90
8684;DHT22;4379;59.744;18.206;2022-11-14T00:23:20;3.00;99.90
8684;DHT22;4379;59.744;18.206;2022-11-14T00:25:47;3.00;99.90
8684;DHT22;4379;59.744;18.206;2022-11-14T00:28:15;3.10;99.90
8684;DHT22;4379;59.744;18.206;2022-11-14T00:30:46;3.10;99.90
8684;DHT22;4379;59.744;18.206;2022-11-14T00:33:14;3.10;99.90
8684;DHT22;4379;59.744;18.206;2022-11-14T00:35:54;3.00;99.90
8684;DHT22;4379;59.744;18.206;2022-11-14T00:38:22;3.00;99.90
8684;DHT22;4379;59.744;18.206;2022-11-14T00:40:49;3.00;99.90
8684;DHT22;4379;59.744;18.206;2022-11-14T00:43:17;3.00;99.90
8684;DHT22;4379;59.744;18.206;2022-11-14T00:45:45;3.00;99.90
8684;DHT22;4379;59.744;18.206;2022-11-14T00:48:13;3.00;99.90
8684;DHT22;4379;59.744;18.206;2022-11-14T00:50:41;3.10;99.90
8684;DHT22;4379;59.744;18.206;2022-11-14T00:53:09;3.10;99.90
8684;DHT22;4379;59.744;18.206;2022-11-14T00:55:36;3.20;99.90
8684;DHT22;4379;59.744;18.206;2022-11-14T00:58:04;3.20;99.90
8684;DHT22;4379;59.744;18.206;2022-11-14T01:00:31;3.20;99.90
8684;DHT22;4379;59.744;18.206;2022-11-14T01:02:58;3.20;99.90
8684;DHT22;4379;59.744;18.206;2022-11-14T01:05:26;3.20;99.90
8684;DHT22;4379;59.744;18.206;2022-11-14T01:07:54;3.10;99.90
8684;DHT22;4379;59.744;18.206;2022-11-14T01:10:21;3.20;99.90
8684;DHT22;4379;59.744;18.206;2022-11-14T01:12:49;3.30;99.90
8684;DHT22;4379;59.744;18.206;2022-11-14T01:15:16;3.30;99.90
8684;DHT22;4379;59.744;18.206;2022-11-14T01:17:43;3.30;99.90
8684;DHT22;4379;59.744;18.206;2022-11-14T01:20:10;3.30;99.90
8684;DHT22;4379;59.744;18.206;2022-11-14T01:22:38;3.30;99.90
8684;DHT22;4379;59.744;18.206;2022-11-14T01:25:05;3.40;99.90
8684;DHT22;4379;59.744;18.206;2022-11-14T01:27:33;3.40;99.90
8684;DHT22;4379;59.744;18.206;2022-11-14T01:30:00;3.50;99.90
8684;DHT22;4379;59.744;18.206;2022-11-14T01:32:27;3.50;99.90
8684;DHT22;4379;59.744;18.206;2022-11-14T01:34:54;3.50;99.90
8684;DHT22;4379;59.744;18.206;2022-11-14T01:37:22;3.70;99.90
8684;DHT22;4379;59.744;18.206;2022-11-14T01:39:49;3.70;99.90
8684;DHT22;4379;59.744;18.206;2022-11-14T01:42:16;3.70;99.90
8684;DHT22;4379;59.744;18.206;2022-11-14T01:44:50;3.70;99.90
8684;DHT22;4379;59.744;18.206;2022-11-14T01:47:21;3.60;99.90
8684;DHT22;4379;59.744;18.206;2022-11-14T01:49:56;3.70;99.90
8684;DHT22;4379;59.744;18.206;2022-11-14T01:52:28;3.70;99.90
8684;DHT22;4379;59.744;18.206;2022-11-14T01:54:59;3.80;99.90
8684;DHT22;4379;59.744;18.206;2022-11-14T01:57:30;3.80;99.90
8684;DHT22;4379;59.744;18.206;2022-11-14T02:00:03;3.80;99.90
8684;DHT22;4379;59.744;18.206;2022-11-14T02:02:31;3.80;99.90
8684;DHT22;4379;59.744;18.206;2022-11-14T02:05:07;3.80;99.90
8684;DHT22;4379;59.744;18.206;2022-11-14T02:07:38;3.90;99.90
8684;DHT22;4379;59.744;18.206;2022-11-14T02:10:15;3.90;99.90
8684;DHT22;4379;59.744;18.206;2022-11-14T02:12:43;3.90;99.90
8684;DHT22;4379;59.744;18.206;2022-11-14T02:15:12;4.00;99.90
8684;DHT22;4379;59.744;18.206;2022-11-14T02:17:40;4.00;99.90
8684;DHT22;4379;59.744;18.206;2022-11-14T02:22:38;3.90;99.90
8684;DHT22;4379;59.744;18.206;2022-11-14T02:25:07;3.90;99.90
8684;DHT22;4379;59.744;18.206;2022-11-14T02:27:37;3.90;99.90
8684;DHT22;4379;59.744;18.206;2022-11-14T02:30:08;4.00;99.90
8684;DHT22;4379;59.744;18.206;2022-11-14T02:32:36;4.00;99.90
8684;DHT22;4379;59.744;18.206;2022-11-14T02:35:24;4.00;99.90
8684;DHT22;4379;59.744;18.206;2022-11-14T02:37:51;4.10;99.90
8684;DHT22;4379;59.744;18.206;2022-11-14T02:40:18;4.00;99.90
8684;DHT22;4379;59.744;18.206;2022-11-14T02:42:46;4.10;99.90
8684;DHT22;4379;59.744;18.206;2022-11-14T02:45:13;4.10;99.90
8684;DHT22;4379;59.744;18.206;2022-11-14T02:47:40;4.10;99.90
8684;DHT22;4379;59.744;18.206;2022-11-14T02:50:08;4.10;99.90
8684;DHT22;4379;59.744;18.206;2022-11-14T02:52:35;3.90;99.90
8684;DHT22;4379;59.744;18.206;2022-11-14T02:55:04;4.00;99.90
8684;DHT22;4379;59.744;18.206;2022-11-14T02:57:31;4.00;99.90
8684;DHT22;4379;59.744;18.206;2022-11-14T02:59:58;4.10;99.90
8684;DHT22;4379;59.744;18.206;2022-11-14T03:02:26;4.00;99.90
8684;DHT22;4379;59.744;18.206;2022-11-14T03:04:53;4.10;99.90
8684;DHT22;4379;59.744;18.206;2022-11-14T03:07:20;4.10;99.90
8684;DHT22;4379;59.744;18.206;2022-11-14T03:09:48;4.20;99.90
8684;DHT22;4379;59.744;18.206;2022-11-14T03:12:16;4.20;99.90
8684;DHT22;4379;59.744;18.206;2022-11-14T03:14:44;4.10;99.90
8684;DHT22;4379;59.744;18.206;2022-11-14T03:17:11;4.20;99.90
8684;DHT22;4379;59.744;18.206;2022-11-14T03:19:39;4.30;99.90
8684;DHT22;4379;59.744;18.206;2022-11-14T03:22:06;4.20;99.90
8684;DHT22;4379;59.744;18.206;2022-11-14T03:24:33;4.30;99.90
8684;DHT22;4379;59.744;18.206;2022-11-14T03:27:01;4.40;99.90
8684;DHT22;4379;59.744;18.206;2022-11-14T03:29:28;4.50;99.90
8684;DHT22;4379;59.744;18.206;2022-11-14T03:31:55;4.50;99.90
8684;DHT22;4379;59.744;18.206;2022-11-14T03:34:23;4.60;99.90
8684;DHT22;4379;59.744;18.206;2022-11-14T03:36:50;4.40;99.90
8684;DHT22;4379;59.744;18.206;2022-11-14T03:39:17;4.40;99.90
8684;DHT22;4379;59.744;18.206;2022-11-14T03:41:44;4.30;99.90
8684;DHT22;4379;59.744;18.206;2022-11-14T03:44:12;4.50;99.90
8684;DHT22;4379;59.744;18.206;2022-11-14T03:46:39;4.40;99.90
8684;DHT22;4379;59.744;18.206;2022-11-14T03:49:06;4.50;99.90
8684;DHT22;4379;59.744;18.206;2022-11-14T03:51:33;4.60;99.90
8684;DHT22;4379;59.744;18.206;2022-11-14T03:54:01;4.50;99.90
8684;DHT22;4379;59.744;18.206;2022-11-14T03:56:28;4.50;99.90
8684;DHT22;4379;59.744;18.206;2022-11-14T03:58:55;4.60;99.90
8684;DHT22;4379;59.744;18.206;2022-11-14T04:01:22;4.70;99.90
8684;DHT22;4379;59.744;18.206;2022-11-14T04:03:50;4.70;99.90
8684;DHT22;4379;59.744;18.206;2022-11-14T04:06:17;4.70;99.90
8684;DHT22;4379;59.744;18.206;2022-11-14T04:08:44;4.50;99.90
8684;DHT22;4379;59.744;18.206;2022-11-14T04:11:11;4.60;99.90
8684;DHT22;4379;59.744;18.206;2022-11-14T04:13:39;4.50;99.90
8684;DHT22;4379;59.744;18.206;2022-11-14T04:16:06;4.50;99.90
8684;DHT22;4379;59.744;18.206;2022-11-14T04:18:34;4.40;99.90
8684;DHT22;4379;59.744;18.206;2022-11-14T04:21:01;4.40;99.90
8684;DHT22;4379;59.744;18.206;2022-11-14T04:23:29;4.60;99.90
8684;DHT22;4379;59.744;18.206;2022-11-14T04:25:56;4.60;99.90
8684;DHT22;4379;59.744;18.206;2022-11-14T04:28:23;4.70;99.90
8684;DHT22;4379;59.744;18.206;2022-11-14T04:30:50;4.70;99.90
8684;DHT22;4379;59.744;18.206;2022-11-14T04:33:18;4.80;99.90
8684;DHT22;4379;59.744;18.206;2022-11-14T04:35:45;4.80;99.90
8684;DHT22;4379;59.744;18.206;2022-11-14T04:38:12;4.90;99.90
8684;DHT22;4379;59.744;18.206;2022-11-14T04:40:39;4.80;99.90
8684;DHT22;4379;59.744;18.206;2022-11-14T04:43:07;4.60;99.90
8684;DHT22;4379;59.744;18.206;2022-11-14T04:45:34;4.60;99.90
8684;DHT22;4379;59.744;18.206;2022-11-14T04:48:01;4.60;99.90
8684;DHT22;4379;59.744;18.206;2022-11-14T04:50:29;4.60;99.90
8684;DHT22;4379;59.744;18.206;2022-11-14T04:52:56;4.50;99.90
8684;DHT22;4379;59.744;18.206;2022-11-14T04:55:23;4.50;99.90
8684;DHT22;4379;59.744;18.206;2022-11-14T04:57:54;4.50;99.90
8684;DHT22;4379;59.744;18.206;2022-11-14T05:00:22;4.40;99.90
8684;DHT22;4379;59.744;18.206;2022-11-14T05:02:50;4.40;99.90
8684;DHT22;4379;59.744;18.206;2022-11-14T05:05:17;4.60;99.90
8684;DHT22;4379;59.744;18.206;2022-11-14T05:07:44;4.80;99.90
8684;DHT22;4379;59.744;18.206;2022-11-14T05:10:12;4.80;99.90
8684;DHT22;4379;59.744;18.206;2022-11-14T05:12:39;4.80;99.90
8684;DHT22;4379;59.744;18.206;2022-11-14T05:15:07;4.90;99.90
8684;DHT22;4379;59.744;18.206;2022-11-14T05:17:34;4.90;99.90
8684;DHT22;4379;59.744;18.206;2022-11-14T05:20:02;4.90;99.90
8684;DHT22;4379;59.744;18.206;2022-11-14T05:22:29;4.90;99.90
8684;DHT22;4379;59.744;18.206;2022-11-14T05:24:56;5.00;99.90
8684;DHT22;4379;59.744;18.206;2022-11-14T05:27:24;5.00;99.90
8684;DHT22;4379;59.744;18.206;2022-11-14T05:29:51;5.00;99.90
8684;DHT22;4379;59.744;18.206;2022-11-14T05:32:19;4.90;99.90
8684;DHT22;4379;59.744;18.206;2022-11-14T05:34:46;4.90;99.90
8684;DHT22;4379;59.744;18.206;2022-11-14T05:37:13;4.90;99.90
8684;DHT22;4379;59.744;18.206;2022-11-14T05:39:41;5.00;99.90
8684;DHT22;4379;59.744;18.206;2022-11-14T05:42:08;5.10;99.90
8684;DHT22;4379;59.744;18.206;2022-11-14T05:44:35;5.00;99.90
8684;DHT22;4379;59.744;18.206;2022-11-14T05:47:02;5.10;99.90
8684;DHT22;4379;59.744;18.206;2022-11-14T05:49:30;5.20;99.90
8684;DHT22;4379;59.744;18.206;2022-11-14T05:51:57;5.20;99.90
8684;DHT22;4379;59.744;18.206;2022-11-14T05:54:24;5.10;99.90
8684;DHT22;4379;59.744;18.206;2022-11-14T05:56:51;5.10;99.90
8684;DHT22;4379;59.744;18.206;2022-11-14T05:59:19;5.20;99.90
8684;DHT22;4379;59.744;18.206;2022-11-14T06:01:46;5.20;99.90
8684;DHT22;4379;59.744;18.206;2022-11-14T06:04:14;5.30;99.90
8684;DHT22;4379;59.744;18.206;2022-11-14T06:06:41;5.30;99.90
8684;DHT22;4379;59.744;18.206;2022-11-14T06:09:08;5.30;99.90
8684;DHT22;4379;59.744;18.206;2022-11-14T06:11:35;5.20;99.90
8684;DHT22;4379;59.744;18.206;2022-11-14T06:14:03;5.10;99.90
8684;DHT22;4379;59.744;18.206;2022-11-14T06:16:36;5.00;99.90
8684;DHT22;4379;59.744;18.206;2022-11-14T06:19:03;5.10;99.90
8684;DHT22;4379;59.744;18.206;2022-11-14T06:21:31;5.20;99.90
8684;DHT22;4379;59.744;18.206;2022-11-14T06:23:58;5.10;99.90
8684;DHT22;4379;59.744;18.206;2022-11-14T06:26:28;5.20;99.90
8684;DHT22;4379;59.744;18.206;2022-11-14T06:28:58;5.20;99.90
8684;DHT22;4379;59.744;18.206;2022-11-14T06:31:26;5.10;99.90
8684;DHT22;4379;59.744;18.206;2022-11-14T06:33:54;5.20;99.90
8684;DHT22;4379;59.744;18.206;2022-11-14T06:36:22;5.20;99.90
8684;DHT22;4379;59.744;18.206;2022-11-14T06:38:49;5.10;99.90
8684;DHT22;4379;59.744;18.206;2022-11-14T06:41:19;5.20;99.90
8684;DHT22;4379;59.744;18.206;2022-11-14T06:43:49;5.20;99.90
8684;DHT22;4379;59.744;18.206;2022-11-14T06:46:19;5.20;99.90
8684;DHT22;4379;59.744;18.206;2022-11-14T06:48:47;5.20;99.90
8684;DHT22;4379;59.744;18.206;2022-11-14T06:51:16;5.20;99.90
8684;DHT22;4379;59.744;18.206;2022-11-14T06:53:44;5.30;99.90
8684;DHT22;4379;59.744;18.206;2022-11-14T06:56:13;5.30;99.90
8684;DHT22;4379;59.744;18.206;2022-11-14T06:58:46;5.30;99.90
8684;DHT22;4379;59.744;18.206;2022-11-14T07:01:33;5.30;99.90
8684;DHT22;4379;59.744;18.206;2022-11-14T07:04:01;5.20;99.90
8684;DHT22;4379;59.744;18.206;2022-11-14T07:06:29;5.20;99.90
8684;DHT22;4379;59.744;18.206;2022-11-14T07:08:57;5.30;99.90
8684;DHT22;4379;59.744;18.206;2022-11-14T07:11:26;5.30;99.90
8684;DHT22;4379;59.744;18.206;2022-11-14T07:13:57;5.40;99.90
8684;DHT22;4379;59.744;18.206;2022-11-14T07:16:27;5.40;99.90
8684;DHT22;4379;59.744;18.206;2022-11-14T07:18:56;5.40;99.90
8684;DHT22;4379;59.744;18.206;2022-11-14T07:21:25;5.50;99.90
8684;DHT22;4379;59.744;18.206;2022-11-14T07:23:53;5.60;99.90
8684;DHT22;4379;59.744;18.206;2022-11-14T07:26:20;5.70;99.90
8684;DHT22;4379;59.744;18.206;2022-11-14T07:28:48;5.70;99.90
8684;DHT22;4379;59.744;18.206;2022-11-14T07:31:21;5.80;99.90
8684;DHT22;4379;59.744;18.206;2022-11-14T07:33:48;5.90;99.90
8684;DHT22;4379;59.744;18.206;2022-11-14T07:36:16;5.80;99.90
8684;DHT22;4379;59.744;18.206;2022-11-14T07:38:44;5.80;99.90
8684;DHT22;4379;59.744;18.206;2022-11-14T07:41:15;5.80;99.90
8684;DHT22;4379;59.744;18.206;2022-11-14T07:43:43;5.90;99.90
8684;DHT22;4379;59.744;18.206;2022-11-14T07:46:13;5.70;99.90
8684;DHT22;4379;59.744;18.206;2022-11-14T07:48:41;5.70;99.90
8684;DHT22;4379;59.744;18.206;2022-11-14T07:51:14;5.80;99.90
8684;DHT22;4379;59.744;18.206;2022-11-14T07:53:42;5.80;99.90
8684;DHT22;4379;59.744;18.206;2022-11-14T07:56:10;5.90;99.90
8684;DHT22;4379;59.744;18.206;2022-11-14T07:58:38;5.90;99.90
8684;DHT22;4379;59.744;18.206;2022-11-14T08:01:08;6.00;99.90
8684;DHT22;4379;59.744;18.206;2022-11-14T08:03:36;6.10;99.90
8684;DHT22;4379;59.744;18.206;2022-11-14T08:06:13;6.20;99.90
8684;DHT22;4379;59.744;18.206;2022-11-14T08:08:40;6.30;99.90
8684;DHT22;4379;59.744;18.206;2022-11-14T08:11:07;6.20;99.90
8684;DHT22;4379;59.744;18.206;2022-11-14T08:13:35;6.20;99.90
8684;DHT22;4379;59.744;18.206;2022-11-14T08:16:08;6.20;99.90
8684;DHT22;4379;59.744;18.206;2022-11-14T08:18:40;6.30;99.90
8684;DHT22;4379;59.744;18.206;2022-11-14T08:21:07;6.20;99.90
8684;DHT22;4379;59.744;18.206;2022-11-14T08:23:34;6.30;99.90
8684;DHT22;4379;59.744;18.206;2022-11-14T08:26:02;6.40;99.90
8684;DHT22;4379;59.744;18.206;2022-11-14T08:28:29;6.50;99.90
8684;DHT22;4379;59.744;18.206;2022-11-14T08:31:01;6.40;99.90
8684;DHT22;4379;59.744;18.206;2022-11-14T08:33:28;6.40;99.90
8684;DHT22;4379;59.744;18.206;2022-11-14T08:36:02;6.40;99.90
8684;DHT22;4379;59.744;18.206;2022-11-14T08:38:31;6.50;99.90
8684;DHT22;4379;59.744;18.206;2022-11-14T08:41:00;6.50;99.90
8684;DHT22;4379;59.744;18.206;2022-11-14T08:43:28;6.50;99.90
8684;DHT22;4379;59.744;18.206;2022-11-14T08:45:57;6.50;99.90
8684;DHT22;4379;59.744;18.206;2022-11-14T08:48:28;6.50;99.90
8684;DHT22;4379;59.744;18.206;2022-11-14T08:50:57;6.50;99.90
8684;DHT22;4379;59.744;18.206;2022-11-14T08:53:24;6.50;99.90
8684;DHT22;4379;59.744;18.206;2022-11-14T08:55:51;6.50;99.90
8684;DHT22;4379;59.744;18.206;2022-11-14T08:58:19;6.50;99.90
8684;DHT22;4379;59.744;18.206;2022-11-14T09:00:46;6.50;99.90
8684;DHT22;4379;59.744;18.206;2022-11-14T09:03:13;6.50;99.90
8684;DHT22;4379;59.744;18.206;2022-11-14T09:05:42;6.50;99.90
8684;DHT22;4379;59.744;18.206;2022-11-14T09:08:09;6.50;99.90
8684;DHT22;4379;59.744;18.206;2022-11-14T09:10:36;6.60;99.90
8684;DHT22;4379;59.744;18.206;2022-11-14T09:13:04;6.40;99.90
8684;DHT22;4379;59.744;18.206;2022-11-14T09:15:31;6.40;99.90
8684;DHT22;4379;59.744;18.206;2022-11-14T09:17:59;6.40;99.90
8684;DHT22;4379;59.744;18.206;2022-11-14T09:20:27;6.40;99.90
8684;DHT22;4379;59.744;18.206;2022-11-14T09:23:02;6.50;99.90
8684;DHT22;4379;59.744;18.206;2022-11-14T09:25:30;6.50;99.90
8684;DHT22;4379;59.744;18.206;2022-11-14T09:27:57;6.50;99.90
8684;DHT22;4379;59.744;18.206;2022-11-14T09:30:28;6.50;99.90
8684;DHT22;4379;59.744;18.206;2022-11-14T09:32:59;6.50;99.90
8684;DHT22;4379;59.744;18.206;2022-11-14T09:35:31;6.50;99.90
8684;DHT22;4379;59.744;18.206;2022-11-14T09:38:06;6.50;99.90
8684;DHT22;4379;59.744;18.206;2022-11-14T09:46:28;6.50;99.90
8684;DHT22;4379;59.744;18.206;2022-11-14T09:48:57;6.50;99.90
8684;DHT22;4379;59.744;18.206;2022-11-14T09:51:42;6.50;99.90
8684;DHT22;4379;59.744;18.206;2022-11-14T09:54:25;6.60;99.90
8684;DHT22;4379;59.744;18.206;2022-11-14T09:56:53;6.70;99.90
8684;DHT22;4379;59.744;18.206;2022-11-14T09:59:20;6.70;99.90
8684;DHT22;4379;59.744;18.206;2022-11-14T10:05:00;6.70;99.90
8684;DHT22;4379;59.744;18.206;2022-11-14T10:10:53;6.70;99.90
8684;DHT22;4379;59.744;18.206;2022-11-14T10:19:17;6.90;99.90
8684;DHT22;4379;59.744;18.206;2022-11-14T10:24:35;6.90;99.90
8684;DHT22;4379;59.744;18.206;2022-11-14T10:27:28;7.00;99.90
8684;DHT22;4379;59.744;18.206;2022-11-14T10:30:10;6.90;99.90
8684;DHT22;4379;59.744;18.206;2022-11-14T10:35:56;7.10;99.90
8684;DHT22;4379;59.744;18.206;2022-11-14T10:38:34;7.00;99.90
8684;DHT22;4379;59.744;18.206;2022-11-14T10:41:05;6.90;99.90
8684;DHT22;4379;59.744;18.206;2022-11-14T10:43:44;7.10;99.90
8684;DHT22;4379;59.744;18.206;2022-11-14T10:46:16;7.10;99.90
8684;DHT22;4379;59.744;18.206;2022-11-14T10:48:50;7.10;99.90
8684;DHT22;4379;59.744;18.206;2022-11-14T10:57:14;7.00;99.90
8684;DHT22;4379;59.744;18.206;2022-11-14T10:59:42;7.00;99.90
8684;DHT22;4379;59.744;18.206;2022-11-14T11:02:10;7.00;99.90
8684;DHT22;4379;59.744;18.206;2022-11-14T11:04:39;7.00;99.90
8684;DHT22;4379;59.744;18.206;2022-11-14T11:09:37;6.90;99.90
8684;DHT22;4379;59.744;18.206;2022-11-14T11:12:46;6.80;99.90
8684;DHT22;4379;59.744;18.206;2022-11-14T11:15:13;7.00;99.90
8684;DHT22;4379;59.744;18.206;2022-11-14T11:18:22;7.10;99.90
8684;DHT22;4379;59.744;18.206;2022-11-14T11:21:12;7.10;99.90
8684;DHT22;4379;59.744;18.206;2022-11-14T11:23:54;7.20;99.90
8684;DHT22;4379;59.744;18.206;2022-11-14T11:26:31;7.10;99.90
8684;DHT22;4379;59.744;18.206;2022-11-14T11:31:52;7.00;99.90
8684;DHT22;4379;59.744;18.206;2022-11-14T11:34:30;7.00;99.90
8684;DHT22;4379;59.744;18.206;2022-11-14T11:37:19;7.10;99.90
8684;DHT22;4379;59.744;18.206;2022-11-14T11:40:03;7.00;99.90
8684;DHT22;4379;59.744;18.206;2022-11-14T11:42:39;7.00;99.90
8684;DHT22;4379;59.744;18.206;2022-11-14T11:45:28;7.10;99.90
8684;DHT22;4379;59.744;18.206;2022-11-14T11:50:42;7.10;99.90
8684;DHT22;4379;59.744;18.206;2022-11-14T11:53:23;7.10;99.90
8684;DHT22;4379;59.744;18.206;2022-11-14T11:56:00;7.20;99.90
8684;DHT22;4379;59.744;18.206;2022-11-14T11:58:58;7.10;99.90
8684;DHT22;4379;59.744;18.206;2022-11-14T12:01:22;7.20;99.90
8684;DHT22;4379;59.744;18.206;2022-11-14T12:03:53;7.30;99.90
8684;DHT22;4379;59.744;18.206;2022-11-14T12:06:23;7.20;99.90
8684;DHT22;4379;59.744;18.206;2022-11-14T12:11:29;7.30;99.90
8684;DHT22;4379;59.744;18.206;2022-11-14T12:24:49;7.10;99.90
8684;DHT22;4379;59.744;18.206;2022-11-14T12:30:09;7.00;99.90
8684;DHT22;4379;59.744;18.206;2022-11-14T12:35:33;7.00;99.90
8684;DHT22;4379;59.744;18.206;2022-11-14T12:38:03;7.00;99.90
8684;DHT22;4379;59.744;18.206;2022-11-14T12:40:37;7.00;99.90
8684;DHT22;4379;59.744;18.206;2022-11-14T12:43:39;6.90;99.90
8684;DHT22;4379;59.744;18.206;2022-11-14T12:46:11;7.00;99.90
8684;DHT22;4379;59.744;18.206;2022-11-14T12:48:41;7.10;99.90
8684;DHT22;4379;59.744;18.206;2022-11-14T12:53:56;7.00;99.90
8684;DHT22;4379;59.744;18.206;2022-11-14T13:09:30;6.90;99.90
8684;DHT22;4379;59.744;18.206;2022-11-14T13:15:24;6.80;99.90
8684;DHT22;4379;59.744;18.206;2022-11-14T13:21:26;6.80;99.90
8684;DHT22;4379;59.744;18.206;2022-11-14T13:24:18;6.70;99.90
8684;DHT22;4379;59.744;18.206;2022-11-14T13:26:48;6.80;99.90
8684;DHT22;4379;59.744;18.206;2022-11-14T13:32:02;6.80;99.90
8684;DHT22;4379;59.744;18.206;2022-11-14T13:34:51;6.80;99.90
8684;DHT22;4379;59.744;18.206;2022-11-14T13:37:50;6.90;99.90
8684;DHT22;4379;59.744;18.206;2022-11-14T13:43:28;6.80;99.90
8684;DHT22;4379;59.744;18.206;2022-11-14T13:49:06;6.90;99.90
8684;DHT22;4379;59.744;18.206;2022-11-14T13:51:41;6.80;99.90
8684;DHT22;4379;59.744;18.206;2022-11-14T13:54:19;6.80;99.90
8684;DHT22;4379;59.744;18.206;2022-11-14T13:57:01;6.80;99.90
8684;DHT22;4379;59.744;18.206;2022-11-14T14:19:10;6.90;99.90
8684;DHT22;4379;59.744;18.206;2022-11-14T14:22:00;6.90;99.90
8684;DHT22;4379;59.744;18.206;2022-11-14T14:24:52;6.90;99.90
8684;DHT22;4379;59.744;18.206;2022-11-14T14:30:13;6.70;99.90
8684;DHT22;4379;59.744;18.206;2022-11-14T14:32:40;6.70;99.90
8684;DHT22;4379;59.744;18.206;2022-11-14T14:35:28;6.70;99.90
8684;DHT22;4379;59.744;18.206;2022-11-14T14:37:56;6.70;99.90
8684;DHT22;4379;59.744;18.206;2022-11-14T14:42:55;6.80;99.90
8684;DHT22;4379;59.744;18.206;2022-11-14T14:45:26;6.70;99.90
8684;DHT22;4379;59.744;18.206;2022-11-14T14:48:04;6.70;99.90
8684;DHT22;4379;59.744;18.206;2022-11-14T14:50:40;6.70;99.90
8684;DHT22;4379;59.744;18.206;2022-11-14T14:53:29;6.70;99.90
8684;DHT22;4379;59.744;18.206;2022-11-14T14:58:28;6.70;99.90
8684;DHT22;4379;59.744;18.206;2022-11-14T15:03:38;6.70;99.90
8684;DHT22;4379;59.744;18.206;2022-11-14T15:06:22;6.70;99.90
8684;DHT22;4379;59.744;18.206;2022-11-14T15:09:01;6.80;99.90
8684;DHT22;4379;59.744;18.206;2022-11-14T15:11:29;6.80;99.90
8684;DHT22;4379;59.744;18.206;2022-11-14T15:14:00;6.70;99.90
8684;DHT22;4379;59.744;18.206;2022-11-14T15:16:28;6.80;99.90
8684;DHT22;4379;59.744;18.206;2022-11-14T15:18:57;6.80;99.90
8684;DHT22;4379;59.744;18.206;2022-11-14T15:21:28;6.80;99.90
8684;DHT22;4379;59.744;18.206;2022-11-14T15:24:10;6.80;99.90
8684;DHT22;4379;59.744;18.206;2022-11-14T15:26:39;6.70;99.90
8684;DHT22;4379;59.744;18.206;2022-11-14T15:29:17;6.70;99.90
8684;DHT22;4379;59.744;18.206;2022-11-14T15:31:55;6.60;99.90
8684;DHT22;4379;59.744;18.206;2022-11-14T15:34:26;6.60;99.90
8684;DHT22;4379;59.744;18.206;2022-11-14T15:39:37;6.50;99.90
8684;DHT22;4379;59.744;18.206;2022-11-14T15:44:50;6.50;99.90
8684;DHT22;4379;59.744;18.206;2022-11-14T15:47:33;6.50;99.90
8684;DHT22;4379;59.744;18.206;2022-11-14T15:50:29;6.60;99.90
8684;DHT22;4379;59.744;18.206;2022-11-14T15:53:23;6.60;99.90
8684;DHT22;4379;59.744;18.206;2022-11-14T15:55:49;6.60;99.90
8684;DHT22;4379;59.744;18.206;2022-11-14T15:58:17;6.50;99.90
8684;DHT22;4379;59.744;18.206;2022-11-14T16:01:12;6.50;99.90
8684;DHT22;4379;59.744;18.206;2022-11-14T16:03:45;6.60;99.90
8684;DHT22;4379;59.744;18.206;2022-11-14T16:06:17;6.60;99.90
8684;DHT22;4379;59.744;18.206;2022-11-14T16:08:44;6.50;99.90
8684;DHT22;4379;59.744;18.206;2022-11-14T16:11:12;6.50;99.90
8684;DHT22;4379;59.744;18.206;2022-11-14T16:13:39;6.50;99.90
8684;DHT22;4379;59.744;18.206;2022-11-14T16:16:07;6.50;99.90
8684;DHT22;4379;59.744;18.206;2022-11-14T16:18:34;6.50;99.90
8684;DHT22;4379;59.744;18.206;2022-11-14T16:21:02;6.50;99.90
8684;DHT22;4379;59.744;18.206;2022-11-14T16:23:29;6.50;99.90
8684;DHT22;4379;59.744;18.206;2022-11-14T16:25:57;6.50;99.90
8684;DHT22;4379;59.744;18.206;2022-11-14T16:28:24;6.50;99.90
8684;DHT22;4379;59.744;18.206;2022-11-14T16:30:51;6.60;99.90
8684;DHT22;4379;59.744;18.206;2022-11-14T16:33:19;6.60;99.90
8684;DHT22;4379;59.744;18.206;2022-11-14T16:35:46;6.50;99.90
8684;DHT22;4379;59.744;18.206;2022-11-14T16:38:13;6.60;99.90
8684;DHT22;4379;59.744;18.206;2022-11-14T16:40:43;6.60;99.90
8684;DHT22;4379;59.744;18.206;2022-11-14T16:43:13;6.50;99.90
8684;DHT22;4379;59.744;18.206;2022-11-14T16:45:41;6.50;99.90
8684;DHT22;4379;59.744;18.206;2022-11-14T16:48:08;6.50;99.90
8684;DHT22;4379;59.744;18.206;2022-11-14T16:50:36;6.50;99.90
8684;DHT22;4379;59.744;18.206;2022-11-14T16:53:04;6.40;99.90
8684;DHT22;4379;59.744;18.206;2022-11-14T16:55:31;6.40;99.90
8684;DHT22;4379;59.744;18.206;2022-11-14T16:57:58;6.40;99.90
8684;DHT22;4379;59.744;18.206;2022-11-14T17:00:26;6.40;99.90
8684;DHT22;4379;59.744;18.206;2022-11-14T17:02:53;6.40;99.90
8684;DHT22;4379;59.744;18.206;2022-11-14T17:05:21;6.50;99.90
8684;DHT22;4379;59.744;18.206;2022-11-14T17:07:48;6.40;99.90
8684;DHT22;4379;59.744;18.206;2022-11-14T17:10:16;6.40;99.90
8684;DHT22;4379;59.744;18.206;2022-11-14T17:12:43;6.50;99.90
8684;DHT22;4379;59.744;18.206;2022-11-14T17:15:11;6.40;99.90
8684;DHT22;4379;59.744;18.206;2022-11-14T17:17:38;6.40;99.90
8684;DHT22;4379;59.744;18.206;2022-11-14T17:20:05;6.40;99.90
8684;DHT22;4379;59.744;18.206;2022-11-14T17:22:33;6.40;99.90
8684;DHT22;4379;59.744;18.206;2022-11-14T17:25:00;6.30;99.90
8684;DHT22;4379;59.744;18.206;2022-11-14T17:27:28;6.30;99.90
8684;DHT22;4379;59.744;18.206;2022-11-14T17:29:55;6.40;99.90
8684;DHT22;4379;59.744;18.206;2022-11-14T17:32:22;6.40;99.90
8684;DHT22;4379;59.744;18.206;2022-11-14T17:34:49;6.40;99.90
8684;DHT22;4379;59.744;18.206;2022-11-14T17:37:17;6.40;99.90
8684;DHT22;4379;59.744;18.206;2022-11-14T17:39:44;6.40;99.90
8684;DHT22;4379;59.744;18.206;2022-11-14T17:42:11;6.30;99.90
8684;DHT22;4379;59.744;18.206;2022-11-14T17:44:39;6.30;99.90
8684;DHT22;4379;59.744;18.206;2022-11-14T17:47:06;6.30;99.90
8684;DHT22;4379;59.744;18.206;2022-11-14T17:49:33;6.40;99.90
8684;DHT22;4379;59.744;18.206;2022-11-14T17:52:01;6.40;99.90
8684;DHT22;4379;59.744;18.206;2022-11-14T17:54:28;6.50;99.90
8684;DHT22;4379;59.744;18.206;2022-11-14T17:56:55;6.40;99.90
8684;DHT22;4379;59.744;18.206;2022-11-14T17:59:24;6.30;99.90
8684;DHT22;4379;59.744;18.206;2022-11-14T18:01:51;6.30;99.90
8684;DHT22;4379;59.744;18.206;2022-11-14T18:04:20;6.20;99.90
8684;DHT22;4379;59.744;18.206;2022-11-14T18:06:47;6.30;99.90
8684;DHT22;4379;59.744;18.206;2022-11-14T18:09:15;6.30;99.90
8684;DHT22;4379;59.744;18.206;2022-11-14T18:11:42;6.20;99.90
8684;DHT22;4379;59.744;18.206;2022-11-14T18:14:10;6.20;99.90
8684;DHT22;4379;59.744;18.206;2022-11-14T18:16:38;6.20;99.90
8684;DHT22;4379;59.744;18.206;2022-11-14T18:19:25;6.10;99.90
8684;DHT22;4379;59.744;18.206;2022-11-14T18:21:53;6.10;99.90
8684;DHT22;4379;59.744;18.206;2022-11-14T18:24:20;6.10;99.90
8684;DHT22;4379;59.744;18.206;2022-11-14T18:26:47;6.10;99.90
8684;DHT22;4379;59.744;18.206;2022-11-14T18:29:15;6.10;99.90